Time;durP1;ratioP1;P1;durP2;ratioP2;P2;SDS_P1;SDS_P2;PMS_P1;PMS_P2;Temp;Humidity;BMP_temperature;BMP_pressure;BME280_temperature;BME280_humidity;BME280_pressure;Samples;Min_cycle;Max_cycle;Signal;HPM_P1;HPM_P2
2021/09/10 00:01:38;;;;;;;7.30;4.08;;;;;;;15.29;59.12;100431.80;1705975;84;21018;-79
2021/09/10 00:04:05;;;;;;;11.65;5.50;;;;;;;15.28;59.13;100426.11;1705668;83;21010;-79
2021/09/10 00:06:31;;;;;;;11.73;5.20;;;;;;;15.31;59.14;100432.92;1707516;82;21029;-79
2021/09/10 00:08:57;;;;;;;12.98;5.65;;;;;;;15.29;59.17;100433.14;1707062;82;21405;-79
2021/09/10 00:11:24;;;;;;;21.07;6.03;;;;;;;15.28;59.14;100430.64;1705884;82;21010;-79
2021/09/10 00:13:50;;;;;;;7.50;4.42;;;;;;;15.24;59.21;100432.06;1704548;83;21483;-79
2021/09/10 00:16:16;;;;;;;12.05;5.20;;;;;;;15.22;59.23;100433.63;1726811;83;21015;-79
2021/09/10 00:18:42;;;;;;;13.20;5.40;;;;;;;15.20;59.27;100433.52;1727015;83;21553;-79
2021/09/10 00:21:08;;;;;;;8.30;5.42;;;;;;;15.22;59.28;100434.97;1753241;81;21854;-79
2021/09/10 00:23:35;;;;;;;12.90;5.10;;;;;;;15.22;59.29;100436.31;1743800;82;21010;-79
2021/09/10 00:26:01;;;;;;;12.37;5.70;;;;;;;15.21;59.29;100434.64;1757014;81;21478;-79
2021/09/10 00:28:27;;;;;;;9.38;4.62;;;;;;;15.21;59.30;100435.16;1724929;82;21482;-79
2021/09/10 00:30:53;;;;;;;9.80;4.58;;;;;;;15.18;59.33;100442.27;1699077;83;21034;-79
2021/09/10 00:33:19;;;;;;;13.03;5.87;;;;;;;15.14;59.35;100441.84;1698438;84;21166;-79
2021/09/10 00:35:45;;;;;;;11.15;5.78;;;;;;;15.12;59.38;100443.91;1713031;83;20907;-79
2021/09/10 00:38:11;;;;;;;13.98;5.85;;;;;;;15.08;59.39;100445.33;1698700;84;21015;-80
2021/09/10 00:40:37;;;;;;;17.25;5.58;;;;;;;15.07;59.43;100444.17;1699086;84;21034;-79
2021/09/10 00:43:03;;;;;;;12.37;5.58;;;;;;;15.04;59.45;100437.34;1698442;84;21089;-79
2021/09/10 00:45:29;;;;;;;11.28;5.55;;;;;;;15.02;59.46;100440.76;1713836;83;21479;-79
2021/09/10 00:47:57;;;;;;;10.95;5.70;;;;;;;14.92;59.50;100428.16;1696386;84;21513;-79
2021/09/10 00:50:23;;;;;;;10.65;4.95;;;;;;;14.94;59.53;100434.19;1746291;81;20994;-79
2021/09/10 00:52:49;;;;;;;12.43;5.70;;;;;;;14.85;59.58;100419.23;1756902;81;21057;-79
2021/09/10 00:55:25;;;;;;;13.38;4.92;;;;;;;14.88;59.59;100434.98;1743438;82;21082;-79
2021/09/10 00:57:51;;;;;;;8.83;5.12;;;;;;;14.72;59.59;100414.62;1714144;83;21160;-79
2021/09/10 01:00:17;;;;;;;10.68;5.58;;;;;;;14.82;59.63;100431.72;1689719;82;21063;-79
2021/09/10 01:02:43;;;;;;;12.00;5.12;;;;;;;14.82;59.63;100431.72;1726791;83;21033;-79
2021/09/10 01:05:11;;;;;;;13.88;4.97;;;;;;;14.79;59.73;100423.55;1727759;81;21018;-79
2021/09/10 01:07:37;;;;;;;10.45;5.12;;;;;;;14.69;59.72;100415.02;1743505;82;21018;-79
2021/09/10 01:10:06;;;;;;;9.60;5.50;;;;;;;14.75;59.75;100425.48;1757098;80;21633;-79
2021/09/10 01:12:31;;;;;;;15.08;5.85;;;;;;;14.71;59.81;100420.18;1741669;81;21062;-79
2021/09/10 01:14:58;;;;;;;17.02;5.85;;;;;;;14.65;59.88;100425.00;1736122;82;21026;-79
2021/09/10 01:17:24;;;;;;;13.60;5.53;;;;;;;14.65;59.88;100425.00;1735964;82;21009;-79
2021/09/10 01:19:50;;;;;;;12.98;5.20;;;;;;;14.59;59.90;100421.76;1733930;82;21495;-79
2021/09/10 01:22:16;;;;;;;7.50;4.42;;;;;;;14.51;59.94;100413.34;1735991;82;21937;-79
2021/09/10 01:25:15;;;;;;;7.22;4.17;;;;;;;14.68;59.87;100423.26;1735576;81;21506;-79
2021/09/10 01:27:52;;;;;;;9.73;4.65;;;;;;;14.68;59.87;100423.26;1727132;82;21105;-79
2021/09/10 01:30:20;;;;;;;14.35;5.00;;;;;;;14.70;59.85;100426.59;1684746;83;21490;-79
2021/09/10 01:32:47;;;;;;;12.00;4.97;;;;;;;14.62;59.85;100426.73;1706597;84;21108;-79
2021/09/10 01:35:13;;;;;;;7.35;4.62;;;;;;;14.46;59.90;100409.89;1701612;83;21000;-79
2021/09/10 01:37:39;;;;;;;10.72;5.35;;;;;;;14.48;59.95;100417.25;1706369;84;21026;-79
2021/09/10 01:40:07;;;;;;;9.83;5.00;;;;;;;14.46;59.99;100427.33;1710382;82;21534;-79
2021/09/10 01:42:33;;;;;;;9.23;4.50;;;;;;;14.47;59.99;100426.31;1733759;82;21542;-80
2021/09/10 01:44:59;;;;;;;13.32;4.78;;;;;;;14.47;59.99;100431.68;1735729;82;20998;-80
2021/09/10 01:47:25;;;;;;;7.15;4.55;;;;;;;14.43;59.99;100430.91;1733806;82;21506;-79
2021/09/10 01:49:51;;;;;;;12.15;4.72;;;;;;;14.38;60.03;100434.20;1735788;82;21058;-80
2021/09/10 01:52:17;;;;;;;8.70;4.33;;;;;;;14.32;60.10;100432.23;1735907;82;20994;-80
2021/09/10 01:54:43;;;;;;;9.03;4.47;;;;;;;14.25;60.14;100425.98;1733472;82;20906;-80
2021/09/10 01:57:09;;;;;;;9.50;4.50;;;;;;;14.19;60.22;100429.95;1686014;83;21058;-80
2021/09/10 01:59:35;;;;;;;8.33;4.33;;;;;;;14.05;60.26;100408.89;1735599;82;21142;-80
2021/09/10 02:02:01;;;;;;;13.85;5.00;;;;;;;14.05;60.26;100408.89;1735646;82;21045;-79
2021/09/10 02:04:27;;;;;;;10.90;4.65;;;;;;;14.17;60.34;100428.82;1736033;82;21057;-79
2021/09/10 02:06:53;;;;;;;12.88;5.40;;;;;;;14.16;60.38;100429.00;1736085;82;21045;-79
2021/09/10 02:09:19;;;;;;;12.47;5.95;;;;;;;14.11;60.46;100424.20;1736003;82;21042;-79
2021/09/10 02:11:45;;;;;;;9.25;4.75;;;;;;;14.10;60.51;100420.39;1733970;82;21487;-79
2021/09/10 02:14:11;;;;;;;14.95;5.05;;;;;;;14.03;60.57;100412.28;1754312;81;21512;-79
2021/09/10 02:16:37;;;;;;;10.43;3.92;;;;;;;14.09;60.61;100416.04;1759423;81;20928;-79
2021/09/10 02:19:03;;;;;;;8.60;4.75;;;;;;;14.08;60.64;100421.91;1759533;81;21481;-79
2021/09/10 02:21:29;;;;;;;16.55;4.78;;;;;;;14.04;60.68;100415.27;1759378;81;21008;-79
2021/09/10 02:23:55;;;;;;;11.80;5.22;;;;;;;14.00;60.76;100414.02;1759508;81;21666;-79
2021/09/10 02:26:21;;;;;;;10.10;5.65;;;;;;;13.97;60.83;100415.70;1737685;81;21071;-79
2021/09/10 02:28:47;;;;;;;7.87;5.33;;;;;;;13.96;60.89;100412.73;1750837;81;21019;-79
2021/09/10 02:31:13;;;;;;;7.87;5.08;;;;;;;13.93;60.93;100414.45;1759579;81;20963;-79
2021/09/10 02:33:40;;;;;;;12.33;5.35;;;;;;;13.89;61.01;100417.20;1759435;81;20873;-79
2021/09/10 02:36:06;;;;;;;13.18;5.15;;;;;;;13.83;61.12;100421.45;1759497;81;21955;-79
2021/09/10 02:38:32;;;;;;;9.15;4.90;;;;;;;13.79;61.19;100416.69;1758932;81;21000;-79
2021/09/10 02:40:58;;;;;;;10.18;4.67;;;;;;;13.73;61.28;100415.58;1755497;81;21035;-79
2021/09/10 02:43:24;;;;;;;14.58;4.85;;;;;;;13.73;61.36;100412.06;1759072;81;21016;-79
2021/09/10 02:45:50;;;;;;;8.43;4.60;;;;;;;13.72;61.39;100414.44;1759121;81;21032;-79
2021/09/10 02:48:16;;;;;;;8.03;4.50;;;;;;;13.70;61.44;100407.08;1759436;81;21115;-79
2021/09/10 02:50:42;;;;;;;9.98;4.65;;;;;;;13.67;61.48;100411.48;1759360;81;21012;-79
2021/09/10 02:53:08;;;;;;;10.90;4.47;;;;;;;13.69;61.52;100416.13;1759449;81;21671;-79
2021/09/10 02:55:34;;;;;;;7.30;4.00;;;;;;;13.70;61.53;100416.46;1742063;81;21023;-79
2021/09/10 02:58:00;;;;;;;9.30;4.20;;;;;;;13.68;61.57;100418.52;1740817;81;21043;-79
2021/09/10 03:00:26;;;;;;;13.83;4.47;;;;;;;13.67;61.57;100412.83;1759042;81;21089;-79
2021/09/10 03:02:51;;;;;;;10.68;4.90;;;;;;;13.67;61.61;100418.19;1759556;81;21517;-79
2021/09/10 03:05:17;;;;;;;8.53;4.65;;;;;;;13.66;61.61;100420.03;1759326;81;20917;-79
2021/09/10 03:07:43;;;;;;;8.65;4.40;;;;;;;13.64;61.63;100412.70;1759016;81;20976;-79
2021/09/10 03:10:10;;;;;;;11.05;4.72;;;;;;;13.63;61.66;100419.58;1757494;81;21035;-79
2021/09/10 03:12:36;;;;;;;8.48;4.20;;;;;;;13.62;61.66;100412.55;1759331;81;21103;-79
2021/09/10 03:15:04;;;;;;;8.53;4.10;;;;;;;13.59;61.70;100415.11;1759233;81;20961;-79
2021/09/10 03:17:30;;;;;;;8.43;4.20;;;;;;;13.63;61.72;100414.22;1759391;81;21580;-79
2021/09/10 03:19:56;;;;;;;7.42;4.62;;;;;;;13.63;61.73;100408.86;1752832;81;21003;-79
2021/09/10 03:22:22;;;;;;;11.68;4.10;;;;;;;13.62;61.76;100412.55;1729306;83;21027;-79
2021/09/10 03:24:48;;;;;;;9.35;4.15;;;;;;;13.63;61.77;100409.69;1729390;82;21146;-79
2021/09/10 03:27:14;;;;;;;10.15;4.97;;;;;;;13.65;61.80;100410.86;1734475;81;20922;-79
2021/09/10 03:29:40;;;;;;;8.60;3.72;;;;;;;13.63;61.82;100411.54;1759445;80;20986;-79
2021/09/10 03:32:07;;;;;;;14.30;4.28;;;;;;;13.65;61.84;100413.54;1743292;82;21077;-80
2021/09/10 03:34:33;;;;;;;15.25;4.47;;;;;;;13.71;61.80;100403.39;1740055;82;21062;-79
2021/09/10 03:36:59;;;;;;;12.65;5.25;;;;;;;13.70;61.78;100401.72;1713873;83;21133;-79
2021/09/10 03:39:25;;;;;;;17.95;5.00;;;;;;;13.71;61.77;100404.23;1713660;83;21014;-79
2021/09/10 03:41:51;;;;;;;10.72;4.30;;;;;;;13.72;61.76;100405.06;1739946;82;21050;-79
2021/09/10 03:44:17;;;;;;;13.05;3.87;;;;;;;13.71;61.76;100393.51;1743352;82;21489;-79
2021/09/10 03:46:43;;;;;;;14.18;4.25;;;;;;;13.73;61.76;100390.62;1743418;82;20982;-79
2021/09/10 03:49:09;;;;;;;12.03;4.85;;;;;;;13.75;61.74;100396.64;1743657;82;21173;-79
2021/09/10 03:51:35;;;;;;;8.35;4.17;;;;;;;13.74;61.75;100396.31;1741654;82;21007;-79
2021/09/10 03:54:01;;;;;;;11.48;4.83;;;;;;;13.74;61.77;100393.13;1724583;82;21083;-79
2021/09/10 03:56:27;;;;;;;8.95;3.83;;;;;;;13.78;61.76;100396.25;1742750;82;21001;-79
2021/09/10 03:58:53;;;;;;;11.93;4.33;;;;;;;13.77;61.77;100387.38;1739165;82;20891;-80
2021/09/10 04:01:19;;;;;;;6.90;3.87;;;;;;;13.81;61.75;100388.66;1713145;82;21142;-79
2021/09/10 04:03:45;;;;;;;8.88;4.10;;;;;;;13.84;61.72;100391.45;1733109;82;21511;-79
2021/09/10 04:06:11;;;;;;;6.40;3.50;;;;;;;13.82;61.72;100384.12;1742600;82;21041;-79
2021/09/10 04:08:37;;;;;;;17.60;4.90;;;;;;;13.81;61.72;100383.80;1716578;82;21039;-79
2021/09/10 04:11:03;;;;;;;13.90;4.72;;;;;;;13.79;61.73;100387.20;1714157;82;20991;-79
2021/09/10 04:13:29;;;;;;;10.50;4.87;;;;;;;13.79;61.73;100393.90;1712958;83;21093;-79
2021/09/10 04:15:55;;;;;;;19.25;5.15;;;;;;;13.80;61.74;100387.50;1710409;84;21026;-79
2021/09/10 04:18:21;;;;;;;14.50;4.58;;;;;;;13.80;61.73;100396.87;1710859;82;21054;-79
2021/09/10 04:20:47;;;;;;;15.28;5.50;;;;;;;13.79;61.73;100397.92;1739732;82;21009;-79
2021/09/10 04:23:13;;;;;;;13.80;4.60;;;;;;;13.79;61.76;100395.23;1740058;82;21621;-79
2021/09/10 04:25:39;;;;;;;14.25;5.08;;;;;;;13.78;61.78;100401.61;1739997;82;20990;-79
2021/09/10 04:28:07;;;;;;;11.03;5.00;;;;;;;13.83;61.80;100399.17;1737144;82;20974;-79
2021/09/10 04:30:33;;;;;;;7.97;4.37;;;;;;;13.91;61.77;100401.73;1739976;82;21481;-79
2021/09/10 04:32:59;;;;;;;10.78;4.33;;;;;;;13.94;61.73;100404.86;1740415;82;21077;-79
2021/09/10 04:35:25;;;;;;;7.45;4.28;;;;;;;13.97;61.73;100400.96;1740098;82;21069;-79
2021/09/10 04:37:51;;;;;;;15.35;4.72;;;;;;;14.00;61.70;100405.97;1740097;82;21026;-79
2021/09/10 04:40:18;;;;;;;6.65;4.42;;;;;;;14.02;61.70;100409.27;1733359;82;21017;-79
2021/09/10 04:42:45;;;;;;;16.45;4.60;;;;;;;14.05;61.69;100410.23;1710778;83;21537;-79
2021/09/10 04:45:11;;;;;;;7.35;4.15;;;;;;;14.11;61.68;100408.11;1737225;82;21069;-79
2021/09/10 04:47:37;;;;;;;17.62;4.80;;;;;;;14.15;61.65;100410.73;1739940;82;21014;-79
2021/09/10 04:50:04;;;;;;;7.12;3.92;;;;;;;14.20;61.64;100413.67;1740063;82;21191;-78
2021/09/10 04:52:30;;;;;;;7.80;4.12;;;;;;;14.23;61.63;100413.80;1739865;82;21026;-79
2021/09/10 04:54:56;;;;;;;10.98;4.67;;;;;;;14.56;61.70;100415.45;1740103;82;21058;-79
2021/09/10 04:57:22;;;;;;;15.05;4.40;;;;;;;15.32;61.64;100415.78;1731095;82;20907;-79
2021/09/10 04:59:48;;;;;;;11.53;4.75;;;;;;;16.15;61.30;100416.76;1710756;83;21014;-79
2021/09/10 05:02:14;;;;;;;11.15;4.42;;;;;;;16.94;60.84;100419.45;1732626;82;21172;-79
2021/09/10 05:04:40;;;;;;;8.53;3.85;;;;;;;17.67;60.36;100418.68;1740012;82;21506;-79
2021/09/10 05:07:06;;;;;;;11.08;4.50;;;;;;;18.34;59.81;100421.56;1739717;82;21565;-79
2021/09/10 05:09:32;;;;;;;5.90;3.25;;;;;;;19.00;59.13;100426.94;1740062;82;20965;-79
2021/09/10 05:11:58;;;;;;;6.42;4.37;;;;;;;18.98;58.29;100427.14;1740088;81;21033;-79
2021/09/10 05:14:24;;;;;;;11.57;4.37;;;;;;;19.15;58.06;100426.85;1712038;82;22136;-79
2021/09/10 05:16:50;;;;;;;13.00;5.83;;;;;;;19.26;57.49;100437.44;1710295;84;21022;-79
2021/09/10 05:19:17;;;;;;;14.05;5.05;;;;;;;19.04;57.17;100432.16;1710601;83;21026;-79
2021/09/10 05:21:43;;;;;;;14.00;5.28;;;;;;;19.03;56.83;100432.72;1710441;83;21514;-79
2021/09/10 05:24:09;;;;;;;7.85;4.62;;;;;;;18.56;56.22;100433.37;1710652;82;21522;-80
2021/09/10 05:26:35;;;;;;;7.30;3.72;;;;;;;18.03;56.13;100433.73;1712022;82;21773;-80
2021/09/10 05:29:00;;;;;;;10.28;3.72;;;;;;;17.78;56.09;100435.02;1739220;82;20902;-80
2021/09/10 05:31:26;;;;;;;5.72;3.92;;;;;;;17.74;55.71;100433.80;1739901;82;20934;-80
2021/09/10 05:33:53;;;;;;;7.58;3.40;;;;;;;17.57;55.60;100434.50;1740196;82;21052;-80
2021/09/10 05:36:20;;;;;;;10.65;3.77;;;;;;;17.34;55.64;100431.78;1740178;82;21092;-79
2021/09/10 05:38:46;;;;;;;10.95;3.70;;;;;;;17.19;55.70;100429.02;1740202;82;21891;-79
2021/09/10 05:41:12;;;;;;;9.18;4.08;;;;;;;17.32;55.70;100431.66;1725363;82;21014;-79
2021/09/10 05:43:38;;;;;;;8.73;3.60;;;;;;;17.37;55.64;100430.00;1731529;82;21022;-80
2021/09/10 05:46:04;;;;;;;7.03;3.95;;;;;;;17.36;55.61;100428.34;1717796;82;20883;-80
2021/09/10 05:48:30;;;;;;;6.37;3.98;;;;;;;17.28;55.52;100429.91;1740212;82;21021;-80
2021/09/10 05:50:56;;;;;;;6.33;3.27;;;;;;;17.25;55.44;100426.30;1726200;81;21514;-79
2021/09/10 05:53:22;;;;;;;6.60;3.55;;;;;;;17.52;55.44;100419.47;1732840;82;21041;-79
2021/09/10 05:55:48;;;;;;;6.12;3.02;;;;;;;17.81;55.39;100425.66;1728633;82;21049;-80
2021/09/10 05:58:14;;;;;;;11.22;3.87;;;;;;;18.06;55.26;100429.25;1713861;82;21001;-80
2021/09/10 06:00:40;;;;;;;10.32;3.15;;;;;;;18.34;55.13;100424.27;1728555;82;21037;-79
2021/09/10 06:03:06;;;;;;;9.65;3.83;;;;;;;18.53;54.89;100423.84;1724175;81;21178;-80
2021/09/10 06:05:32;;;;;;;8.18;3.33;;;;;;;18.65;54.70;100429.33;1712175;82;21071;-80
2021/09/10 06:07:58;;;;;;;7.45;3.70;;;;;;;18.81;54.48;100432.83;1710684;83;21120;-80
2021/09/10 06:10:24;;;;;;;12.05;3.87;;;;;;;18.91;54.31;100427.73;1710674;83;21482;-80
2021/09/10 06:12:50;;;;;;;6.60;3.40;;;;;;;19.15;54.12;100437.66;1737059;82;21109;-80
2021/09/10 06:15:16;;;;;;;9.33;3.60;;;;;;;19.40;53.82;100435.72;1738203;81;21147;-80
2021/09/10 06:17:42;;;;;;;8.68;3.42;;;;;;;19.57;53.65;100439.17;1738532;82;20998;-80
2021/09/10 06:20:10;;;;;;;11.35;3.65;;;;;;;19.78;53.43;100434.63;1723125;82;21566;-80
2021/09/10 06:22:36;;;;;;;8.18;3.52;;;;;;;19.87;53.18;100435.98;1717090;82;21020;-80
2021/09/10 06:25:03;;;;;;;14.58;6.47;;;;;;;19.92;52.92;100440.16;1729426;82;21097;-79
2021/09/10 06:27:30;;;;;;;4.40;3.15;;;;;;;20.11;52.80;100446.36;1716204;81;21724;-80
2021/09/10 06:29:56;;;;;;;8.20;4.10;;;;;;;20.46;52.62;100443.75;1740797;81;21006;-79
2021/09/10 06:32:24;;;;;;;9.45;3.47;;;;;;;20.75;52.45;100446.92;1728385;80;21036;-79
2021/09/10 06:34:53;;;;;;;11.93;3.80;;;;;;;20.99;52.19;100453.99;1729249;82;21063;-79
2021/09/10 06:37:20;;;;;;;10.63;3.27;;;;;;;21.24;52.07;100449.17;1737497;82;21041;-79
2021/09/10 06:39:47;;;;;;;8.45;3.98;;;;;;;21.17;51.71;100454.42;1732905;82;21159;-79
2021/09/10 06:42:13;;;;;;;6.42;4.08;;;;;;;21.05;51.46;100452.20;1732711;82;21327;-79
2021/09/10 06:44:39;;;;;;;9.83;4.08;;;;;;;21.08;51.37;100452.55;1729972;82;20986;-79
2021/09/10 06:47:05;;;;;;;6.25;3.20;;;;;;;21.25;51.09;100456.22;1731595;82;21075;-79
2021/09/10 06:49:31;;;;;;;12.75;6.40;;;;;;;21.38;50.90;100457.34;1725154;82;21000;-79
2021/09/10 06:51:57;;;;;;;9.30;3.87;;;;;;;21.49;50.62;100454.84;1728407;82;21032;-79
2021/09/10 06:54:23;;;;;;;16.12;4.37;;;;;;;21.59;50.47;100455.88;1734211;82;21058;-79
2021/09/10 06:56:49;;;;;;;7.85;3.20;;;;;;;21.60;50.28;100453.98;1734160;80;21033;-80
2021/09/10 06:59:17;;;;;;;9.50;3.75;;;;;;;21.41;50.00;100463.64;1733484;82;21102;-80
2021/09/10 07:01:43;;;;;;;8.33;3.62;;;;;;;21.33;49.92;100464.00;1737255;82;21544;-79
2021/09/10 07:04:09;;;;;;;6.97;3.90;;;;;;;21.25;49.58;100457.58;1729573;82;21776;-79
2021/09/10 07:06:35;;;;;;;11.90;3.60;;;;;;;21.15;49.46;100465.49;1737070;81;21054;-80
2021/09/10 07:09:01;;;;;;;10.93;3.55;;;;;;;21.23;49.34;100466.50;1729580;82;21001;-79
2021/09/10 07:11:28;;;;;;;13.38;3.77;;;;;;;21.24;49.29;100468.16;1737741;81;20922;-79
2021/09/10 07:13:54;;;;;;;9.13;3.62;;;;;;;21.36;49.17;100466.23;1747836;81;21511;-79
2021/09/10 07:16:20;;;;;;;6.97;3.83;;;;;;;21.49;49.07;100469.77;1750151;81;21978;-79
2021/09/10 07:18:46;;;;;;;7.58;3.62;;;;;;;21.65;49.02;100469.83;1728112;81;21575;-79
2021/09/10 07:23:59;;;;;;;7.62;3.60;;;;;;;21.84;48.67;100473.20;1837652;77;22468;-78
2021/09/10 07:26:28;;;;;;;10.23;3.55;;;;;;;21.86;48.50;100479.20;1813407;78;21026;-79
2021/09/10 07:28:53;;;;;;;8.93;3.08;;;;;;;21.94;48.48;100481.58;1822840;77;21978;-79
2021/09/10 07:31:20;;;;;;;9.15;3.42;;;;;;;22.28;48.35;100476.51;1825667;77;21035;-79
2021/09/10 07:33:46;;;;;;;5.65;3.30;;;;;;;22.41;48.23;100468.03;1817036;78;21010;-79
2021/09/10 07:36:12;;;;;;;8.15;3.67;;;;;;;22.64;48.12;100466.24;1813482;78;20974;-73
2021/09/10 07:38:37;;;;;;;7.40;3.85;;;;;;;22.66;47.91;100460.04;1813031;77;20998;-73
2021/09/10 07:41:04;;;;;;;12.68;5.67;;;;;;;22.68;47.82;100464.71;1811245;78;21406;-72
2021/09/10 07:43:30;;;;;;;9.78;5.65;;;;;;;22.80;47.75;100464.91;1826881;77;22529;-73
2021/09/10 07:45:56;;;;;;;6.53;3.42;;;;;;;22.99;47.70;100468.72;1852174;77;21440;-72
2021/09/10 07:48:22;;;;;;;8.53;3.85;;;;;;;23.28;47.60;100468.34;1842939;75;21025;-72
2021/09/10 07:50:48;;;;;;;8.58;3.17;;;;;;;23.45;47.41;100466.12;1780518;80;20965;-72
2021/09/10 07:53:14;;;;;;;10.65;4.20;;;;;;;23.57;47.12;100469.57;1783974;79;21792;-72
2021/09/10 07:55:40;;;;;;;7.62;4.47;;;;;;;23.43;46.87;100466.94;1782611;79;20988;-73
2021/09/10 07:58:06;;;;;;;12.20;3.90;;;;;;;23.42;46.76;100474.80;1781844;79;20987;-72
2021/09/10 08:00:32;;;;;;;5.97;2.98;;;;;;;23.60;46.76;100472.61;1782331;79;21112;-72
2021/09/10 08:02:58;;;;;;;5.08;2.75;;;;;;;23.96;46.71;100479.27;1775915;78;21208;-73
2021/09/10 08:05:24;;;;;;;9.63;3.20;;;;;;;24.21;46.40;100476.85;1785038;79;21723;-72
2021/09/10 08:07:50;;;;;;;6.90;2.87;;;;;;;24.32;46.15;100480.50;1782962;79;20989;-73
2021/09/10 08:10:17;;;;;;;5.28;3.17;;;;;;;24.17;45.97;100485.82;1793908;79;21077;-73
2021/09/10 08:12:44;;;;;;;9.33;3.22;;;;;;;23.98;45.89;100487.20;1783136;79;21033;-72
2021/09/10 08:15:11;;;;;;;7.83;4.42;;;;;;;23.87;45.87;100495.80;1777845;79;21024;-72
2021/09/10 08:17:37;;;;;;;5.20;3.10;;;;;;;23.79;45.78;100498.96;1784884;79;21687;-72
2021/09/10 08:20:05;;;;;;;7.37;3.52;;;;;;;23.70;45.72;100504.58;1778723;79;20995;-72
2021/09/10 08:22:31;;;;;;;9.33;3.15;;;;;;;23.62;45.79;100511.29;1768802;79;21089;-72
2021/09/10 08:24:57;;;;;;;10.03;3.12;;;;;;;23.82;45.93;100510.70;1793289;78;21005;-72
2021/09/10 08:27:25;;;;;;;15.18;5.03;;;;;;;24.05;45.86;100510.45;1803547;78;21079;-72
2021/09/10 08:29:53;;;;;;;11.53;4.42;;;;;;;24.14;45.80;100513.02;1753470;81;21826;-72
2021/09/10 08:32:19;;;;;;;6.97;2.83;;;;;;;24.11;45.75;100514.87;1779827;78;21051;-71
2021/09/10 08:34:45;;;;;;;12.23;3.25;;;;;;;24.12;45.69;100511.08;1768835;79;21672;-72
2021/09/10 08:37:11;;;;;;;8.90;3.08;;;;;;;24.04;45.71;100507.97;1797724;79;22198;-71
2021/09/10 08:39:37;;;;;;;8.50;3.27;;;;;;;24.13;45.72;100515.48;1818821;78;20938;-72
2021/09/10 08:42:03;;;;;;;8.68;4.10;;;;;;;24.35;45.61;100516.78;1764346;81;22398;-71
2021/09/10 08:44:29;;;;;;;11.12;3.35;;;;;;;24.57;45.52;100515.36;1803346;78;21039;-71
2021/09/10 08:46:55;;;;;;;9.80;4.03;;;;;;;24.54;45.27;100519.97;1814428;78;20992;-71
2021/09/10 08:49:21;;;;;;;10.58;3.85;;;;;;;24.57;45.28;100518.09;1810974;78;20999;-71
2021/09/10 08:51:47;;;;;;;9.50;4.65;;;;;;;24.79;45.22;100522.39;1795117;78;21082;-71
2021/09/10 08:54:13;;;;;;;4.70;2.80;;;;;;;24.97;45.10;100520.38;1819709;78;22453;-72
2021/09/10 08:56:39;;;;;;;9.00;3.25;;;;;;;25.09;44.94;100516.36;1813890;78;21000;-71
2021/09/10 08:59:09;;;;;;;4.30;3.00;;;;;;;25.00;44.66;100520.67;1806143;78;20989;-72
2021/09/10 09:01:51;;;;;;;5.28;2.83;;;;;;;24.75;44.49;100517.71;1753306;81;22431;-71
2021/09/10 09:04:17;;;;;;;5.70;3.17;;;;;;;24.82;44.50;100515.59;1817171;78;21018;-71
2021/09/10 09:06:43;;;;;;;11.28;5.58;;;;;;;24.99;44.48;100512.20;1805630;78;21972;-71
2021/09/10 09:09:10;;;;;;;7.37;3.42;;;;;;;25.24;44.35;100517.84;1716906;81;21029;-71
2021/09/10 09:11:35;;;;;;;9.48;2.95;;;;;;;25.47;44.23;100518.52;1760482;81;20891;-71
2021/09/10 09:14:05;;;;;;;6.33;3.22;;;;;;;25.63;44.08;100522.46;1789655;78;21055;-72
2021/09/10 09:16:32;;;;;;;8.10;3.30;;;;;;;25.72;43.85;100518.69;1797138;77;20994;-71
2021/09/10 09:19:02;;;;;;;8.48;3.47;;;;;;;25.82;43.68;100518.73;1805408;78;22858;-71
2021/09/10 09:21:31;;;;;;;13.08;5.25;;;;;;;25.88;43.59;100517.65;1802992;78;21008;-71
2021/09/10 09:24:20;;;;;;;6.30;3.55;;;;;;;26.08;43.47;100520.44;1785527;79;21044;-71
2021/09/10 09:26:51;;;;;;;;;;;;;;;26.14;43.27;100522.09;1785236;79;21420;-71
2021/09/10 09:29:20;;;;;;;10.72;4.22;;;;;;;26.15;43.08;100515.54;1780887;79;20148;-71
2021/09/10 09:31:58;;;;;;;6.58;3.40;;;;;;;26.18;42.97;100512.30;1787327;79;21630;-71
2021/09/10 09:34:46;;;;;;;5.55;3.00;;;;;;;26.16;42.79;100515.00;1779685;79;21012;-71
2021/09/10 09:37:17;;;;;;;9.25;4.78;;;;;;;26.24;42.75;100509.87;1776942;79;20983;-71
2021/09/10 09:39:59;;;;;;;11.22;3.37;;;;;;;26.26;42.55;100499.47;1814512;78;20994;-71
2021/09/10 09:42:28;;;;;;;10.32;3.45;;;;;;;26.31;42.56;100503.59;1772505;80;20995;-71
2021/09/10 09:45:20;;;;;;;8.78;3.70;;;;;;;26.36;42.39;100504.67;1775313;80;21536;-71
2021/09/10 09:47:44;;;;;;;10.03;4.70;;;;;;;26.29;42.26;100498.92;1775741;79;21061;-71
2021/09/10 09:50:17;;;;;;;5.20;3.87;;;;;;;26.33;42.30;100504.67;1739117;78;21083;-71
2021/09/10 09:52:44;;;;;;;7.83;3.72;;;;;;;26.45;42.32;100506.62;1801744;78;20981;-72
2021/09/10 09:55:12;;;;;;;7.45;4.17;;;;;;;26.52;42.27;100503.07;1777545;80;21094;-71
2021/09/10 09:57:38;;;;;;;12.37;3.55;;;;;;;26.58;42.17;100503.88;1802045;78;22467;-71
2021/09/10 10:00:06;;;;;;;6.15;3.20;;;;;;;26.64;42.15;100498.13;1799851;78;20973;-71
2021/09/10 10:02:34;;;;;;;11.53;4.22;;;;;;;26.63;42.05;100501.16;1813037;78;21040;-71
2021/09/10 10:05:00;;;;;;;14.90;4.85;;;;;;;26.56;42.04;100503.34;1786097;79;20909;-71
2021/09/10 10:07:30;;;;;;;6.80;4.33;;;;;;;26.59;41.98;100495.41;1802840;78;20968;-72
2021/09/10 10:09:56;;;;;;;7.10;3.15;;;;;;;26.61;41.92;100495.13;1783715;79;21776;-72
2021/09/10 10:12:24;;;;;;;10.20;3.92;;;;;;;26.49;41.88;100498.69;1777442;79;20990;-72
2021/09/10 10:14:49;;;;;;;5.58;4.10;;;;;;;26.47;42.00;100503.05;1759230;80;21495;-72
2021/09/10 10:17:34;;;;;;;9.50;3.92;;;;;;;26.55;41.99;100502.52;1775955;79;21446;-72
2021/09/10 10:20:00;;;;;;;8.90;4.05;;;;;;;26.63;41.94;100501.16;1821578;78;20994;-71
2021/09/10 10:22:37;;;;;;;10.50;4.30;;;;;;;26.68;41.98;100502.52;1791022;78;21792;-72
2021/09/10 10:25:05;;;;;;;13.78;4.80;;;;;;;26.81;41.99;100501.41;1792592;80;21428;-72
2021/09/10 10:27:43;;;;;;;6.03;3.83;;;;;;;26.84;41.95;100502.84;1823209;78;20938;-72
2021/09/10 10:30:21;;;;;;;6.92;4.08;;;;;;;26.79;41.94;100497.32;1784660;78;21006;-73
2021/09/10 10:32:50;;;;;;;8.75;4.08;;;;;;;26.79;41.96;100500.88;1811171;78;21029;-72
2021/09/10 10:35:26;;;;;;;7.80;3.75;;;;;;;26.84;41.89;100495.99;1788630;79;21730;-72
2021/09/10 10:38:10;;;;;;;7.47;4.28;;;;;;;27.00;41.92;100496.23;1792643;79;21014;-72
2021/09/10 10:40:50;;;;;;;6.78;3.95;;;;;;;27.00;41.80;100494.87;1818001;78;20982;-72
2021/09/10 10:43:25;;;;;;;4.47;3.52;;;;;;;27.05;41.86;100485.30;1793099;79;20987;-72
2021/09/10 10:46:04;;;;;;;10.03;4.95;;;;;;;27.20;41.83;100496.20;1812697;78;21260;-72
2021/09/10 10:48:36;;;;;;;8.05;4.37;;;;;;;27.22;41.77;100489.09;1763361;80;21887;-72
2021/09/10 10:51:21;;;;;;;8.30;4.83;;;;;;;27.31;41.71;100489.60;1770318;80;20970;-72
2021/09/10 10:53:55;;;;;;;12.78;3.77;;;;;;;27.39;41.61;100488.22;1815924;78;20930;-72
2021/09/10 10:56:33;;;;;;;6.22;4.92;;;;;;;27.36;41.65;100480.56;1811671;78;21487;-72
2021/09/10 10:59:21;;;;;;;5.05;3.58;;;;;;;27.49;41.64;100480.53;1787682;79;21068;-72
2021/09/10 11:02:35;;;;;;;5.78;4.40;;;;;;;27.51;41.43;100489.31;1787070;78;21850;-72
2021/09/10 11:05:20;;;;;;;7.08;4.72;;;;;;;27.41;41.38;100481.10;1781358;80;21043;-72
2021/09/10 11:07:45;;;;;;;9.80;4.90;;;;;;;27.42;41.42;100478.61;1781541;80;21048;-72
2021/09/10 11:10:15;;;;;;;8.60;4.95;;;;;;;27.53;41.38;100481.63;1779045;79;20975;-72
2021/09/10 11:12:43;;;;;;;12.75;4.53;;;;;;;27.60;41.34;100483.52;1799902;78;21039;-79
2021/09/10 11:15:33;;;;;;;7.42;4.50;;;;;;;27.66;41.28;100487.86;1764512;80;21483;-79
2021/09/10 11:18:12;;;;;;;8.65;4.10;;;;;;;27.74;41.26;100477.70;1821568;78;21049;-79
2021/09/10 11:20:51;;;;;;;11.08;4.60;;;;;;;27.79;41.33;100479.06;1792748;80;21797;-79
2021/09/10 11:23:26;;;;;;;8.05;4.55;;;;;;;27.90;41.35;100482.57;1779970;80;21057;-78
2021/09/10 11:25:54;;;;;;;9.10;4.05;;;;;;;27.97;41.27;100482.50;1813154;78;21505;-79
2021/09/10 11:28:21;;;;;;;9.40;4.30;;;;;;;27.95;41.27;100482.53;1826943;78;21842;-79